createdAt,value
2022-09-16T00:01:59.996Z,71.93
2022-09-16T00:07:04.955Z,71.68
2022-09-16T00:12:10.069Z,72.26
2022-09-16T00:17:14.114Z,71.78
2022-09-16T00:22:19.801Z,72.45
2022-09-16T00:27:23.938Z,71.89
2022-09-16T00:32:27.306Z,72.24
2022-09-16T00:37:34.964Z,70.97
2022-09-16T00:42:39.794Z,71.01
2022-09-16T00:47:45.313Z,70.90
2022-09-16T00:52:50.992Z,69.76
2022-09-16T00:57:57.248Z,70.72
2022-09-16T01:03:00.760Z,70.21
2022-09-16T01:08:05.699Z,69.99
2022-09-16T01:13:12.839Z,70.27
2022-09-16T01:18:23.565Z,70.61
2022-09-16T01:24:00.815Z,70.87
2022-09-16T01:29:39.949Z,71.26
2022-09-16T01:34:52.047Z,71.23
2022-09-16T01:40:09.015Z,71.27
2022-09-16T01:45:18.680Z,72.05
2022-09-16T01:50:31.238Z,72.58
2022-09-16T01:55:37.899Z,72.07
2022-09-16T02:00:44.180Z,72.25
2022-09-16T02:05:53.777Z,72.50
2022-09-16T02:11:00.790Z,71.62
2022-09-16T02:16:11.319Z,72.32
2022-09-16T02:21:17.939Z,72.70
2022-09-16T02:26:26.098Z,72.21
2022-09-16T02:31:35.243Z,71.97
2022-09-16T02:36:41.906Z,72.72
2022-09-16T02:41:45.386Z,72.74
2022-09-16T02:46:57.831Z,73.50
2022-09-16T02:52:17.613Z,73.86
2022-09-16T02:57:21.536Z,72.80
2022-09-16T03:02:25.052Z,72.23
2022-09-16T03:07:29.939Z,71.91
2022-09-16T03:12:42.421Z,71.18
2022-09-16T03:18:23.196Z,71.43
2022-09-16T03:23:44.972Z,71.91
2022-09-16T03:28:59.105Z,71.71
2022-09-16T03:34:07.602Z,72.65
2022-09-16T03:39:13.374Z,72.57
2022-09-16T03:44:16.785Z,73.07
2022-09-16T03:49:20.105Z,72.87
2022-09-16T03:54:25.427Z,72.67
2022-09-16T03:59:29.163Z,72.20
2022-09-16T04:04:32.528Z,72.22
2022-09-16T04:09:38.577Z,72.28
2022-09-16T04:14:42.007Z,71.99
2022-09-16T04:19:45.481Z,71.90
2022-09-16T04:24:50.172Z,71.71
2022-09-16T04:29:53.498Z,72.16
2022-09-16T04:34:56.920Z,72.21
2022-09-16T04:40:04.719Z,72.95
2022-09-16T04:45:09.629Z,72.54
2022-09-16T04:50:12.990Z,72.71
2022-09-16T04:55:18.135Z,72.25
2022-09-16T05:00:21.761Z,72.51
2022-09-16T05:05:25.162Z,72.19
2022-09-16T05:10:29.877Z,72.74
2022-09-16T05:15:35.383Z,72.93
2022-09-16T05:20:38.979Z,72.61
2022-09-16T05:25:43.663Z,73.12
2022-09-16T05:30:47.013Z,72.50
2022-09-16T05:35:50.430Z,72.86
2022-09-16T05:40:59.746Z,72.96
2022-09-16T05:46:03.855Z,72.90
2022-09-16T05:51:08.230Z,72.59
2022-09-16T05:56:14.972Z,72.72
2022-09-16T06:01:20.774Z,72.74
2022-09-16T06:06:26.181Z,72.69
2022-09-16T06:11:31.017Z,72.14
2022-09-16T06:16:34.207Z,72.59
2022-09-16T06:21:37.897Z,72.09
2022-09-16T06:26:44.632Z,71.79
2022-09-16T06:31:48.059Z,71.34
2022-09-16T06:36:51.396Z,71.16
2022-09-16T06:41:56.133Z,70.97
2022-09-16T06:46:59.223Z,71.29
2022-09-16T06:52:02.684Z,70.46
2022-09-16T06:57:11.902Z,70.14
2022-09-16T07:02:16.730Z,68.70
2022-09-16T07:07:20.179Z,67.97
2022-09-16T07:12:24.948Z,67.47
2022-09-16T07:17:28.615Z,67.01
2022-09-16T07:22:33.092Z,67.19
2022-09-16T07:27:37.944Z,67.12
2022-09-16T07:32:41.275Z,66.53
2022-09-16T07:37:44.595Z,65.54
2022-09-16T07:42:49.330Z,63.47
2022-09-16T07:47:52.765Z,61.32
2022-09-16T07:52:56.234Z,61.21
2022-09-16T07:58:01.010Z,60.15
2022-09-16T08:03:06.080Z,61.18
2022-09-16T08:08:09.712Z,61.02
2022-09-16T08:13:14.415Z,59.22
2022-09-16T08:18:17.948Z,59.48
2022-09-16T08:23:21.394Z,59.37
2022-09-16T08:28:27.948Z,58.86
2022-09-16T08:33:35.864Z,58.48
2022-09-16T08:38:39.307Z,57.63
2022-09-16T08:43:48.823Z,57.76
2022-09-16T08:49:04.832Z,57.34
2022-09-16T08:54:13.841Z,56.91
2022-09-16T08:59:23.186Z,55.01
2022-09-16T09:04:26.784Z,56.08
2022-09-16T09:09:48.479Z,55.81
2022-09-16T09:15:08.367Z,55.34
2022-09-16T09:20:23.926Z,54.40
2022-09-16T09:25:35.370Z,55.94
2022-09-16T09:30:45.675Z,56.47
2022-09-16T09:35:59.733Z,56.33
2022-09-16T09:41:10.933Z,57.22
2022-09-16T09:46:22.207Z,57.08
2022-09-16T09:51:31.219Z,56.72
2022-09-16T09:56:37.878Z,56.62
2022-09-16T10:01:43.908Z,57.20
2022-09-16T10:06:47.611Z,56.65
2022-09-16T10:11:55.198Z,56.32
2022-09-16T10:17:03.000Z,56.21
2022-09-16T10:22:12.128Z,56.18
2022-09-16T10:27:25.667Z,56.62
2022-09-16T10:32:30.821Z,56.54
2022-09-16T10:37:34.193Z,57.07
2022-09-16T10:42:37.643Z,56.85
2022-09-16T10:47:42.742Z,56.84
2022-09-16T10:52:48.138Z,57.59
2022-09-16T10:57:52.194Z,58.98
2022-09-16T11:03:37.491Z,62.91
2022-09-16T11:08:54.899Z,63.89
2022-09-16T11:14:06.739Z,65.76
2022-09-16T11:19:16.494Z,66.18
2022-09-16T11:24:36.468Z,68.15
2022-09-16T11:29:52.090Z,69.60
2022-09-16T11:35:17.583Z,70.92
2022-09-16T11:40:32.739Z,70.19
2022-09-16T11:45:48.431Z,69.47
2022-09-16T11:51:00.459Z,69.47
2022-09-16T11:56:09.813Z,69.31
2022-09-16T12:01:21.851Z,69.73
2022-09-16T12:06:31.767Z,70.58
2022-09-16T12:11:39.125Z,71.43
2022-09-16T12:16:48.514Z,70.66
2022-09-16T12:21:58.379Z,70.46
2022-09-16T12:27:08.337Z,70.36
2022-09-16T12:32:16.177Z,70.77
2022-09-16T12:37:38.696Z,70.81
2022-09-16T12:43:06.229Z,70.67
2022-09-16T12:48:45.779Z,70.40
2022-09-16T12:54:12.817Z,70.78
2022-09-16T12:59:47.218Z,71.49
2022-09-16T13:04:54.104Z,71.25
2022-09-16T13:10:07.162Z,71.71
2022-09-16T13:15:25.943Z,70.98
2022-09-16T13:20:34.092Z,72.17
2022-09-16T13:25:49.272Z,73.42
2022-09-16T13:30:54.669Z,73.38
2022-09-16T13:36:17.999Z,74.34
2022-09-16T13:41:35.539Z,73.66
2022-09-16T13:46:41.031Z,73.09
2022-09-16T13:51:46.480Z,72.85
2022-09-16T13:57:01.087Z,73.01
2022-09-16T14:02:14.696Z,74.47
2022-09-16T14:07:36.742Z,75.33
2022-09-16T14:12:49.450Z,74.89
2022-09-16T14:17:59.697Z,75.48
2022-09-16T14:23:05.995Z,75.41
2022-09-16T14:28:20.538Z,75.31
2022-09-16T14:33:29.537Z,75.74
2022-09-16T14:38:46.120Z,75.82
2022-09-16T14:43:51.007Z,76.51
2022-09-16T14:48:56.032Z,77.88
2022-09-16T14:54:12.268Z,78.38
2022-09-16T14:59:17.385Z,79.00
2022-09-16T15:04:28.157Z,78.91
2022-09-16T15:09:38.458Z,79.34
2022-09-16T15:14:42.019Z,78.86
2022-09-16T15:19:52.402Z,78.68
2022-09-16T15:24:59.560Z,79.34
2022-09-16T15:30:06.096Z,78.40
2022-09-16T15:35:23.702Z,78.58
2022-09-16T15:40:36.184Z,78.29
2022-09-16T15:45:40.259Z,78.73
2022-09-16T15:50:48.660Z,78.80
2022-09-16T15:56:02.249Z,78.38
2022-09-16T16:01:10.668Z,78.67
2022-09-16T16:06:16.047Z,78.51
2022-09-16T16:11:21.336Z,78.15
2022-09-16T16:16:26.505Z,79.02
2022-09-16T16:21:31.745Z,78.82
2022-09-16T16:26:35.850Z,78.53
2022-09-16T16:31:39.739Z,78.59
2022-09-16T16:36:45.001Z,78.28
2022-09-16T16:41:48.633Z,78.34
2022-09-16T16:46:53.176Z,78.16
2022-09-16T16:51:59.005Z,76.87
2022-09-16T16:57:04.041Z,76.85
2022-09-16T17:02:07.924Z,76.64
2022-09-16T17:07:28.881Z,76.23
2022-09-16T17:12:33.018Z,76.46
2022-09-16T17:17:36.958Z,76.58
2022-09-16T17:22:42.899Z,76.11
2022-09-16T17:27:46.806Z,75.60
2022-09-16T17:32:50.569Z,75.59
2022-09-16T17:37:55.647Z,75.87
2022-09-16T17:42:59.762Z,75.47
2022-09-16T17:48:03.844Z,75.66
2022-09-16T17:53:09.419Z,75.99
2022-09-16T17:58:12.940Z,76.04
2022-09-16T18:03:16.677Z,76.07
2022-09-16T18:08:22.326Z,76.52
2022-09-16T18:13:26.087Z,76.83
2022-09-16T18:18:31.815Z,76.67
2022-09-16T18:23:37.554Z,76.45
2022-09-16T18:29:07.966Z,76.49
2022-09-16T18:34:07.309Z,76.30
2022-09-16T18:39:14.935Z,75.91
2022-09-16T18:44:20.773Z,76.82
2022-09-16T18:49:26.531Z,76.63
2022-09-16T18:54:33.225Z,77.12
2022-09-16T18:59:40.257Z,77.06
2022-09-16T19:04:44.896Z,77.01
2022-09-16T19:09:49.747Z,76.29
2022-09-16T19:14:56.207Z,76.25
2022-09-16T19:20:00.747Z,76.44
2022-09-16T19:25:05.659Z,75.98
2022-09-16T19:30:09.923Z,76.87
2022-09-16T19:35:13.655Z,76.86
2022-09-16T19:40:18.966Z,77.20
2022-09-16T19:45:27.232Z,77.09
2022-09-16T19:50:31.167Z,77.24
2022-09-16T19:55:35.903Z,77.38
2022-09-16T20:00:55.303Z,77.97
2022-09-16T20:06:03.242Z,77.87
2022-09-16T20:11:10.630Z,77.82
2022-09-16T20:16:14.199Z,77.99
2022-09-16T20:21:20.029Z,77.74
2022-09-16T20:26:24.987Z,78.42
2022-09-16T20:31:31.203Z,78.47
2022-09-16T20:36:38.358Z,78.54
2022-09-16T20:41:45.753Z,79.10
2022-09-16T20:46:50.190Z,78.86
2022-09-16T20:51:53.671Z,79.03
2022-09-16T20:56:58.402Z,79.37
2022-09-16T21:02:04.253Z,78.99
2022-09-16T21:07:07.618Z,78.35
2022-09-16T21:12:12.363Z,78.87
2022-09-16T21:17:19.886Z,78.79
2022-09-16T21:22:23.681Z,79.01
2022-09-16T21:27:28.420Z,78.82
2022-09-16T21:32:32.587Z,79.50
2022-09-16T21:37:36.022Z,78.71
2022-09-16T21:42:41.151Z,78.72
2022-09-16T21:47:44.443Z,78.97
2022-09-16T21:52:47.745Z,78.63
2022-09-16T21:57:52.410Z,78.77
2022-09-16T22:02:56.672Z,78.17
2022-09-16T22:08:00.968Z,78.70
2022-09-16T22:13:05.732Z,78.51
2022-09-16T22:18:08.773Z,79.03
2022-09-16T22:23:12.170Z,78.69
2022-09-16T22:28:16.947Z,78.72
2022-09-16T22:33:20.029Z,78.36
2022-09-16T22:38:23.380Z,78.84
2022-09-16T22:43:28.094Z,78.80
2022-09-16T22:48:31.882Z,78.52
2022-09-16T22:53:36.058Z,78.97
2022-09-16T22:58:40.797Z,78.68
2022-09-16T23:03:44.324Z,78.60
2022-09-16T23:08:47.977Z,78.47
2022-09-16T23:13:54.968Z,78.66
2022-09-16T23:19:00.109Z,78.57
2022-09-16T23:24:05.514Z,78.20
2022-09-16T23:29:12.158Z,78.25
2022-09-16T23:34:18.191Z,76.90
2022-09-16T23:39:21.744Z,77.83
2022-09-16T23:44:26.485Z,78.51
2022-09-16T23:49:29.570Z,78.34
2022-09-16T23:54:32.884Z,78.43
2022-09-16T23:59:37.622Z,78.54
